Corsicana, TX (75110)

7:39 AM CDT on August 30, 2015 (GMT -0500)
Bowie - Collins School area | | Change Station
CLOSE
Current Station
Personal Weather Station
Location: Corsicana, TX
Elevation: 433 ft
Nearby Weather Stations

Elev 433 ft 32.11 °N, 96.49 °W | Updated 14 seconds ago

Overcast
Overcast
76.1 °F
Feels Like 78 °F
N
1.8
Wind Variable Wind from SSE
Gusts 2.5 mph

Today
High -- | Low -- °F
--% Chance of Precip.
Yesterday
High -- | Low -- °F
Precip. -- in
6:59 AM 7:52 PM
Full, 99% visible
Pressure 29.99 in
Visibility 10.0 miles
Clouds Overcast 12000 ft
Heat Index 78 °F
Dew Point 67 °F
Humidity 74%
Rainfall 0.00 in
Snow Depth Not available.
UV 0.0 out of 12
Pollen 8.00 out of 12
Air Quality Not available.
Flu Activity Not available.
METAR KCRS 301153Z AUTO 19005KT 10SM OVC120 24/18 A3001 RMK AO2 SLP155 T02440183 10278 20244 51008
Pressure 29.99 in
Visibility 10.0 miles
Clouds Overcast 12000 ft
Heat Index 78 °F
Dew Point 67 °F
Humidity 74%
Rainfall 0.00 in
Snow Depth Not available.
UV 0.0 out of 12
Pollen 8.00 out of 12
Air Quality Not available.
Flu Activity Not available.
METAR KCRS 301153Z AUTO 19005KT 10SM OVC120 24/18 A3001 RMK AO2 SLP155 T02440183 10278 20244 51008
Nowcast | as of 6:29 am CDT on August 30, 2015

Areas of sprinkles and very light rain will continue through mid morning across north and central Texas....especially along and south of a Breckenridge to Waxahachie to Athens line. Rainfall amounts are expected to remain very light with totals generally less than one tenth of an inch. Otherwise...conditions will remain mild with temperatures in the 70s and light and variable winds through sunrise. Thereafter...temperatures are expected to climb into the 80s with partly sunny skies.

×

10-Day Weather Forecast

×

Almanac

Astronomy

Aug. 30, 2015 Rise Set
Actual Time
Civil Twilight
Nautical Twilight
Astronomical Twilight
Moon
Length of Visible Light
Length of Day
Tomorrow will be .
, % of the Moon is Illuminated

Today's Extremes

State Highs State Lows

Community

WunderPhotos

Upload Photos

1,850,940 photos uploaded!

WunderBlogs® & News

Nearby

Air Quality

  Air Quality AQ Index Pollutant
Not available.

Snow Depth

Station Depth Elevation

Earthquake Activity

City Distance Mag. Time & Date
Minimum magnitude displayed is 2.5.

Coastal Water Temperatures

Place Temperature

Stations

Nearby Weather Stations

Station Location Temp. Windchill Dew Point Humidity Wind Precip. Elev Updated Type